sensor_id;sensor_type;location;lat;lon;timestamp;temperature;humidity
33476;DHT22;19814;48.224;11.422;2023-02-26T00:01:13;0.40;99.90
33476;DHT22;19814;48.224;11.422;2023-02-26T00:03:38;0.40;99.90
33476;DHT22;19814;48.224;11.422;2023-02-26T00:06:04;0.30;99.90
33476;DHT22;19814;48.224;11.422;2023-02-26T00:08:31;0.20;99.90
33476;DHT22;19814;48.224;11.422;2023-02-26T00:10:56;0.20;99.90
33476;DHT22;19814;48.224;11.422;2023-02-26T00:13:22;0.20;99.90
33476;DHT22;19814;48.224;11.422;2023-02-26T00:15:48;0.20;99.90
33476;DHT22;19814;48.224;11.422;2023-02-26T00:18:15;0.30;99.90
33476;DHT22;19814;48.224;11.422;2023-02-26T00:20:41;0.20;99.90
33476;DHT22;19814;48.224;11.422;2023-02-26T00:23:11;0.20;99.90
33476;DHT22;19814;48.224;11.422;2023-02-26T00:25:38;0.20;99.90
33476;DHT22;19814;48.224;11.422;2023-02-26T00:28:04;0.10;99.90
33476;DHT22;19814;48.224;11.422;2023-02-26T00:30:29;0.10;99.90
33476;DHT22;19814;48.224;11.422;2023-02-26T00:32:55;0.00;99.90
33476;DHT22;19814;48.224;11.422;2023-02-26T00:35:21;0.00;99.90
33476;DHT22;19814;48.224;11.422;2023-02-26T00:38:03;0.00;99.90
33476;DHT22;19814;48.224;11.422;2023-02-26T00:40:37;0.00;99.90
33476;DHT22;19814;48.224;11.422;2023-02-26T00:43:04;0.00;99.90
33476;DHT22;19814;48.224;11.422;2023-02-26T00:45:30;0.00;99.90
33476;DHT22;19814;48.224;11.422;2023-02-26T00:53:27;0.00;99.90
33476;DHT22;19814;48.224;11.422;2023-02-26T00:55:53;-0.10;99.90
33476;DHT22;19814;48.224;11.422;2023-02-26T00:58:18;0.00;99.90
33476;DHT22;19814;48.224;11.422;2023-02-26T01:00:44;0.00;99.90
33476;DHT22;19814;48.224;11.422;2023-02-26T01:03:09;0.00;99.90
33476;DHT22;19814;48.224;11.422;2023-02-26T01:05:36;-0.10;99.90
33476;DHT22;19814;48.224;11.422;2023-02-26T01:08:15;0.00;99.90
33476;DHT22;19814;48.224;11.422;2023-02-26T01:10:44;0.00;99.90
33476;DHT22;19814;48.224;11.422;2023-02-26T01:13:09;-0.10;99.90
33476;DHT22;19814;48.224;11.422;2023-02-26T01:15:35;-0.10;99.90
33476;DHT22;19814;48.224;11.422;2023-02-26T01:20:35;-0.20;99.90
33476;DHT22;19814;48.224;11.422;2023-02-26T01:23:06;-0.20;99.90
33476;DHT22;19814;48.224;11.422;2023-02-26T01:25:37;-0.20;99.90
33476;DHT22;19814;48.224;11.422;2023-02-26T01:28:03;-0.20;99.90
33476;DHT22;19814;48.224;11.422;2023-02-26T01:30:29;-0.20;99.90
33476;DHT22;19814;48.224;11.422;2023-02-26T01:43:16;-0.40;99.90
33476;DHT22;19814;48.224;11.422;2023-02-26T01:45:50;-0.40;99.90
33476;DHT22;19814;48.224;11.422;2023-02-26T01:48:33;-0.50;99.90
33476;DHT22;19814;48.224;11.422;2023-02-26T01:51:00;-0.50;99.90
33476;DHT22;19814;48.224;11.422;2023-02-26T01:53:25;-0.50;99.90
33476;DHT22;19814;48.224;11.422;2023-02-26T01:55:55;-0.50;99.90
33476;DHT22;19814;48.224;11.422;2023-02-26T01:58:21;-0.50;99.90
33476;DHT22;19814;48.224;11.422;2023-02-26T02:00:47;-0.50;99.90
33476;DHT22;19814;48.224;11.422;2023-02-26T02:03:13;-0.50;99.90
33476;DHT22;19814;48.224;11.422;2023-02-26T02:05:41;-0.50;99.90
33476;DHT22;19814;48.224;11.422;2023-02-26T02:08:07;-0.60;99.90
33476;DHT22;19814;48.224;11.422;2023-02-26T02:10:32;-0.50;99.90
33476;DHT22;19814;48.224;11.422;2023-02-26T02:18:17;-0.50;99.90
33476;DHT22;19814;48.224;11.422;2023-02-26T02:23:21;-0.40;99.90
33476;DHT22;19814;48.224;11.422;2023-02-26T02:28:39;-0.50;99.90
33476;DHT22;19814;48.224;11.422;2023-02-26T02:31:12;-0.50;99.90
33476;DHT22;19814;48.224;11.422;2023-02-26T02:33:47;-0.60;99.90
33476;DHT22;19814;48.224;11.422;2023-02-26T02:39:10;-0.60;99.90
33476;DHT22;19814;48.224;11.422;2023-02-26T02:41:39;-0.60;99.90
33476;DHT22;19814;48.224;11.422;2023-02-26T02:44:07;-0.60;99.90
33476;DHT22;19814;48.224;11.422;2023-02-26T02:46:35;-0.70;99.90
33476;DHT22;19814;48.224;11.422;2023-02-26T02:49:10;-0.60;99.90
33476;DHT22;19814;48.224;11.422;2023-02-26T02:51:59;-0.60;99.90
33476;DHT22;19814;48.224;11.422;2023-02-26T02:55:09;-0.60;99.90
33476;DHT22;19814;48.224;11.422;2023-02-26T02:57:19;-0.60;99.90
33476;DHT22;19814;48.224;11.422;2023-02-26T02:59:47;-0.60;99.90
33476;DHT22;19814;48.224;11.422;2023-02-26T03:04:55;-0.70;99.90
33476;DHT22;19814;48.224;11.422;2023-02-26T03:07:21;-0.80;99.90
33476;DHT22;19814;48.224;11.422;2023-02-26T03:09:47;-0.90;99.90
33476;DHT22;19814;48.224;11.422;2023-02-26T03:12:12;-1.00;99.90
33476;DHT22;19814;48.224;11.422;2023-02-26T03:14:38;-1.10;99.90
33476;DHT22;19814;48.224;11.422;2023-02-26T03:17:06;-1.20;99.90
33476;DHT22;19814;48.224;11.422;2023-02-26T03:22:21;-1.20;99.90
33476;DHT22;19814;48.224;11.422;2023-02-26T03:25:11;-1.10;99.90
33476;DHT22;19814;48.224;11.422;2023-02-26T03:30:14;-1.10;99.90
33476;DHT22;19814;48.224;11.422;2023-02-26T03:32:43;-1.10;99.90
33476;DHT22;19814;48.224;11.422;2023-02-26T03:35:17;-1.10;99.90
33476;DHT22;19814;48.224;11.422;2023-02-26T03:37:44;-1.20;99.90
33476;DHT22;19814;48.224;11.422;2023-02-26T03:40:18;-1.20;99.90
33476;DHT22;19814;48.224;11.422;2023-02-26T03:42:48;-1.20;99.90
33476;DHT22;19814;48.224;11.422;2023-02-26T03:45:17;-1.20;99.90
33476;DHT22;19814;48.224;11.422;2023-02-26T03:47:46;-1.20;99.90
33476;DHT22;19814;48.224;11.422;2023-02-26T03:50:15;-1.10;99.90
33476;DHT22;19814;48.224;11.422;2023-02-26T03:52:43;-1.20;99.90
33476;DHT22;19814;48.224;11.422;2023-02-26T03:55:14;-1.20;99.90
33476;DHT22;19814;48.224;11.422;2023-02-26T03:57:41;-1.20;99.90
33476;DHT22;19814;48.224;11.422;2023-02-26T04:00:07;-1.20;99.90
33476;DHT22;19814;48.224;11.422;2023-02-26T04:02:43;-1.20;99.90
33476;DHT22;19814;48.224;11.422;2023-02-26T04:05:19;-1.20;99.90
33476;DHT22;19814;48.224;11.422;2023-02-26T04:07:46;-1.20;99.90
33476;DHT22;19814;48.224;11.422;2023-02-26T04:10:15;-1.20;99.90
33476;DHT22;19814;48.224;11.422;2023-02-26T04:12:41;-1.30;99.90
33476;DHT22;19814;48.224;11.422;2023-02-26T04:15:07;-1.30;99.90
33476;DHT22;19814;48.224;11.422;2023-02-26T04:17:32;-1.20;99.90
33476;DHT22;19814;48.224;11.422;2023-02-26T04:19:58;-1.30;99.90
33476;DHT22;19814;48.224;11.422;2023-02-26T04:22:23;-1.20;99.90
33476;DHT22;19814;48.224;11.422;2023-02-26T04:24:49;-1.20;99.90
33476;DHT22;19814;48.224;11.422;2023-02-26T04:27:14;-1.20;99.90
33476;DHT22;19814;48.224;11.422;2023-02-26T04:29:40;-1.20;99.90
33476;DHT22;19814;48.224;11.422;2023-02-26T04:32:05;-1.30;99.90
33476;DHT22;19814;48.224;11.422;2023-02-26T04:34:31;-1.30;99.90
33476;DHT22;19814;48.224;11.422;2023-02-26T04:36:56;-1.40;99.90
33476;DHT22;19814;48.224;11.422;2023-02-26T04:39:22;-1.40;99.90
33476;DHT22;19814;48.224;11.422;2023-02-26T04:41:47;-1.40;99.90
33476;DHT22;19814;48.224;11.422;2023-02-26T04:44:13;-1.40;99.90
33476;DHT22;19814;48.224;11.422;2023-02-26T04:46:38;-1.50;99.90
33476;DHT22;19814;48.224;11.422;2023-02-26T04:49:03;-1.50;99.90
33476;DHT22;19814;48.224;11.422;2023-02-26T04:51:29;-1.60;99.90
33476;DHT22;19814;48.224;11.422;2023-02-26T04:53:55;-1.50;99.90
33476;DHT22;19814;48.224;11.422;2023-02-26T04:56:20;-1.50;99.90
33476;DHT22;19814;48.224;11.422;2023-02-26T04:58:46;-1.50;99.90
33476;DHT22;19814;48.224;11.422;2023-02-26T05:01:11;-1.60;99.90
33476;DHT22;19814;48.224;11.422;2023-02-26T05:03:38;-1.60;99.90
33476;DHT22;19814;48.224;11.422;2023-02-26T05:06:03;-1.70;99.90
33476;DHT22;19814;48.224;11.422;2023-02-26T05:08:29;-1.70;99.90
33476;DHT22;19814;48.224;11.422;2023-02-26T05:10:54;-1.80;99.90
33476;DHT22;19814;48.224;11.422;2023-02-26T05:13:20;-1.80;99.90
33476;DHT22;19814;48.224;11.422;2023-02-26T05:15:45;-2.00;99.90
33476;DHT22;19814;48.224;11.422;2023-02-26T05:18:11;-2.10;99.90
33476;DHT22;19814;48.224;11.422;2023-02-26T05:20:36;-2.20;99.90
33476;DHT22;19814;48.224;11.422;2023-02-26T05:23:02;-2.30;99.90
33476;DHT22;19814;48.224;11.422;2023-02-26T05:25:27;-2.30;99.90
33476;DHT22;19814;48.224;11.422;2023-02-26T05:27:53;-2.40;99.90
33476;DHT22;19814;48.224;11.422;2023-02-26T05:30:18;-2.50;99.90
33476;DHT22;19814;48.224;11.422;2023-02-26T05:32:44;-2.70;99.90
33476;DHT22;19814;48.224;11.422;2023-02-26T05:35:10;-2.70;99.90
33476;DHT22;19814;48.224;11.422;2023-02-26T05:37:35;-2.70;99.90
33476;DHT22;19814;48.224;11.422;2023-02-26T05:40:01;-2.80;99.90
33476;DHT22;19814;48.224;11.422;2023-02-26T05:42:27;-2.80;99.90
33476;DHT22;19814;48.224;11.422;2023-02-26T05:44:52;-2.80;99.90
33476;DHT22;19814;48.224;11.422;2023-02-26T05:47:18;-2.80;99.90
33476;DHT22;19814;48.224;11.422;2023-02-26T05:49:43;-2.90;99.90
33476;DHT22;19814;48.224;11.422;2023-02-26T05:52:09;-2.90;99.90
33476;DHT22;19814;48.224;11.422;2023-02-26T05:54:34;-2.80;99.90
33476;DHT22;19814;48.224;11.422;2023-02-26T05:57:00;-2.80;99.90
33476;DHT22;19814;48.224;11.422;2023-02-26T05:59:26;-2.80;99.90
33476;DHT22;19814;48.224;11.422;2023-02-26T06:01:51;-2.80;99.90
33476;DHT22;19814;48.224;11.422;2023-02-26T06:04:17;-2.70;99.90
33476;DHT22;19814;48.224;11.422;2023-02-26T06:06:42;-2.70;99.90
33476;DHT22;19814;48.224;11.422;2023-02-26T06:09:07;-2.70;99.90
33476;DHT22;19814;48.224;11.422;2023-02-26T06:11:33;-2.70;99.90
33476;DHT22;19814;48.224;11.422;2023-02-26T06:13:58;-2.60;99.90
33476;DHT22;19814;48.224;11.422;2023-02-26T06:16:24;-2.60;99.90
33476;DHT22;19814;48.224;11.422;2023-02-26T06:18:49;-2.60;99.90
33476;DHT22;19814;48.224;11.422;2023-02-26T06:21:16;-2.70;99.90
33476;DHT22;19814;48.224;11.422;2023-02-26T06:23:41;-2.80;99.90
33476;DHT22;19814;48.224;11.422;2023-02-26T06:26:07;-3.00;99.90
33476;DHT22;19814;48.224;11.422;2023-02-26T06:28:32;-3.00;99.90
33476;DHT22;19814;48.224;11.422;2023-02-26T06:30:58;-3.00;99.90
33476;DHT22;19814;48.224;11.422;2023-02-26T06:33:23;-3.10;99.90
33476;DHT22;19814;48.224;11.422;2023-02-26T06:35:49;-3.00;99.90
33476;DHT22;19814;48.224;11.422;2023-02-26T06:38:14;-3.00;99.90
33476;DHT22;19814;48.224;11.422;2023-02-26T06:40:40;-3.00;99.90
33476;DHT22;19814;48.224;11.422;2023-02-26T06:43:05;-2.90;99.90
33476;DHT22;19814;48.224;11.422;2023-02-26T06:45:31;-2.80;99.90
33476;DHT22;19814;48.224;11.422;2023-02-26T06:47:56;-2.70;99.90
33476;DHT22;19814;48.224;11.422;2023-02-26T06:50:22;-2.60;99.90
33476;DHT22;19814;48.224;11.422;2023-02-26T06:52:48;-2.50;99.90
33476;DHT22;19814;48.224;11.422;2023-02-26T06:55:13;-2.60;99.90
33476;DHT22;19814;48.224;11.422;2023-02-26T06:57:39;-2.50;99.90
33476;DHT22;19814;48.224;11.422;2023-02-26T07:00:04;-2.40;99.90
33476;DHT22;19814;48.224;11.422;2023-02-26T07:02:30;-2.30;99.90
33476;DHT22;19814;48.224;11.422;2023-02-26T07:04:56;-2.10;99.90
33476;DHT22;19814;48.224;11.422;2023-02-26T07:07:21;-2.00;99.90
33476;DHT22;19814;48.224;11.422;2023-02-26T07:09:47;-2.00;99.90
33476;DHT22;19814;48.224;11.422;2023-02-26T07:12:13;-2.10;99.90
33476;DHT22;19814;48.224;11.422;2023-02-26T07:14:38;-2.30;99.90
33476;DHT22;19814;48.224;11.422;2023-02-26T07:17:04;-2.40;99.90
33476;DHT22;19814;48.224;11.422;2023-02-26T07:19:30;-2.40;99.90
33476;DHT22;19814;48.224;11.422;2023-02-26T07:21:55;-2.40;99.90
33476;DHT22;19814;48.224;11.422;2023-02-26T07:24:21;-2.40;99.90
33476;DHT22;19814;48.224;11.422;2023-02-26T07:26:46;-2.20;99.90
33476;DHT22;19814;48.224;11.422;2023-02-26T07:29:12;-2.10;99.90
33476;DHT22;19814;48.224;11.422;2023-02-26T07:31:38;-1.70;99.90
33476;DHT22;19814;48.224;11.422;2023-02-26T07:34:03;-1.40;99.90
33476;DHT22;19814;48.224;11.422;2023-02-26T07:36:29;-1.20;99.90
33476;DHT22;19814;48.224;11.422;2023-02-26T07:38:54;-1.10;99.90
33476;DHT22;19814;48.224;11.422;2023-02-26T07:41:20;-0.80;99.90
33476;DHT22;19814;48.224;11.422;2023-02-26T07:43:45;-0.70;99.90
33476;DHT22;19814;48.224;11.422;2023-02-26T07:46:11;-0.50;99.90
33476;DHT22;19814;48.224;11.422;2023-02-26T07:48:36;-0.40;99.90
33476;DHT22;19814;48.224;11.422;2023-02-26T07:51:02;-0.40;99.90
33476;DHT22;19814;48.224;11.422;2023-02-26T07:53:28;-0.20;99.90
33476;DHT22;19814;48.224;11.422;2023-02-26T07:55:53;0.00;99.90
33476;DHT22;19814;48.224;11.422;2023-02-26T07:58:19;0.40;99.90
33476;DHT22;19814;48.224;11.422;2023-02-26T08:00:44;0.40;99.90
33476;DHT22;19814;48.224;11.422;2023-02-26T08:03:10;0.30;99.90
33476;DHT22;19814;48.224;11.422;2023-02-26T08:05:35;0.20;99.90
33476;DHT22;19814;48.224;11.422;2023-02-26T08:08:01;0.00;99.90
33476;DHT22;19814;48.224;11.422;2023-02-26T08:10:27;-0.10;99.90
33476;DHT22;19814;48.224;11.422;2023-02-26T08:12:53;0.00;99.90
33476;DHT22;19814;48.224;11.422;2023-02-26T08:15:18;0.20;99.90
33476;DHT22;19814;48.224;11.422;2023-02-26T08:17:44;0.60;99.90
33476;DHT22;19814;48.224;11.422;2023-02-26T08:20:09;0.70;99.90
33476;DHT22;19814;48.224;11.422;2023-02-26T08:22:36;0.80;99.90
33476;DHT22;19814;48.224;11.422;2023-02-26T08:25:01;0.50;99.90
33476;DHT22;19814;48.224;11.422;2023-02-26T08:27:27;0.40;99.90
33476;DHT22;19814;48.224;11.422;2023-02-26T08:29:52;0.40;99.90
33476;DHT22;19814;48.224;11.422;2023-02-26T08:32:18;0.50;99.90
33476;DHT22;19814;48.224;11.422;2023-02-26T08:34:44;0.60;99.90
33476;DHT22;19814;48.224;11.422;2023-02-26T08:37:10;1.00;99.90
33476;DHT22;19814;48.224;11.422;2023-02-26T08:39:36;1.20;99.90
33476;DHT22;19814;48.224;11.422;2023-02-26T08:42:03;1.30;99.90
33476;DHT22;19814;48.224;11.422;2023-02-26T08:44:29;1.30;99.90
33476;DHT22;19814;48.224;11.422;2023-02-26T08:46:58;1.20;99.90
33476;DHT22;19814;48.224;11.422;2023-02-26T08:49:28;1.10;99.90
33476;DHT22;19814;48.224;11.422;2023-02-26T08:51:53;1.20;99.90
33476;DHT22;19814;48.224;11.422;2023-02-26T08:54:19;1.20;99.90
33476;DHT22;19814;48.224;11.422;2023-02-26T08:56:44;1.20;99.90
33476;DHT22;19814;48.224;11.422;2023-02-26T08:59:10;0.90;99.90
33476;DHT22;19814;48.224;11.422;2023-02-26T09:01:37;0.90;99.90
33476;DHT22;19814;48.224;11.422;2023-02-26T09:04:02;1.00;99.90
33476;DHT22;19814;48.224;11.422;2023-02-26T09:06:28;1.10;99.90
33476;DHT22;19814;48.224;11.422;2023-02-26T09:08:53;1.00;99.90
33476;DHT22;19814;48.224;11.422;2023-02-26T09:11:19;0.90;99.90
33476;DHT22;19814;48.224;11.422;2023-02-26T09:13:44;0.80;99.90
33476;DHT22;19814;48.224;11.422;2023-02-26T09:16:10;0.70;99.90
33476;DHT22;19814;48.224;11.422;2023-02-26T09:18:35;0.80;99.90
33476;DHT22;19814;48.224;11.422;2023-02-26T09:21:00;0.70;99.90
33476;DHT22;19814;48.224;11.422;2023-02-26T09:23:27;0.80;99.90
33476;DHT22;19814;48.224;11.422;2023-02-26T09:25:53;0.70;99.90
33476;DHT22;19814;48.224;11.422;2023-02-26T09:28:19;0.70;99.90
33476;DHT22;19814;48.224;11.422;2023-02-26T09:30:45;0.70;99.90
33476;DHT22;19814;48.224;11.422;2023-02-26T09:33:10;0.60;99.90
33476;DHT22;19814;48.224;11.422;2023-02-26T09:35:36;0.60;99.90
33476;DHT22;19814;48.224;11.422;2023-02-26T09:38:01;0.60;99.90
33476;DHT22;19814;48.224;11.422;2023-02-26T09:40:35;0.80;99.90
33476;DHT22;19814;48.224;11.422;2023-02-26T09:46:03;0.90;99.90
33476;DHT22;19814;48.224;11.422;2023-02-26T09:48:30;0.80;99.90
33476;DHT22;19814;48.224;11.422;2023-02-26T09:50:56;0.90;99.90
33476;DHT22;19814;48.224;11.422;2023-02-26T09:55:49;0.80;99.90
33476;DHT22;19814;48.224;11.422;2023-02-26T09:58:34;0.70;99.90
33476;DHT22;19814;48.224;11.422;2023-02-26T10:07:02;0.60;99.90
33476;DHT22;19814;48.224;11.422;2023-02-26T10:09:31;0.80;99.90
33476;DHT22;19814;48.224;11.422;2023-02-26T10:14:34;0.90;99.90
33476;DHT22;19814;48.224;11.422;2023-02-26T10:17:06;1.20;99.90
33476;DHT22;19814;48.224;11.422;2023-02-26T10:19:36;1.20;99.90
33476;DHT22;19814;48.224;11.422;2023-02-26T10:22:06;1.10;99.90
33476;DHT22;19814;48.224;11.422;2023-02-26T10:24:43;1.20;99.90
33476;DHT22;19814;48.224;11.422;2023-02-26T10:27:12;1.40;99.90
33476;DHT22;19814;48.224;11.422;2023-02-26T10:32:25;1.70;99.90
33476;DHT22;19814;48.224;11.422;2023-02-26T10:34:54;2.10;99.90
33476;DHT22;19814;48.224;11.422;2023-02-26T10:40:01;3.40;99.90
33476;DHT22;19814;48.224;11.422;2023-02-26T10:42:45;3.50;98.70
33476;DHT22;19814;48.224;11.422;2023-02-26T10:50:33;3.00;99.10
33476;DHT22;19814;48.224;11.422;2023-02-26T10:52:59;3.10;99.90
33476;DHT22;19814;48.224;11.422;2023-02-26T10:55:27;2.90;99.70
33476;DHT22;19814;48.224;11.422;2023-02-26T11:00:28;3.10;99.70
33476;DHT22;19814;48.224;11.422;2023-02-26T11:02:54;3.30;98.70
33476;DHT22;19814;48.224;11.422;2023-02-26T11:05:22;3.30;98.70
33476;DHT22;19814;48.224;11.422;2023-02-26T11:07:49;2.70;99.10
33476;DHT22;19814;48.224;11.422;2023-02-26T11:10:16;2.50;99.90
33476;DHT22;19814;48.224;11.422;2023-02-26T11:12:42;2.40;99.90
33476;DHT22;19814;48.224;11.422;2023-02-26T11:15:11;2.50;99.90
33476;DHT22;19814;48.224;11.422;2023-02-26T11:17:37;2.60;99.90
33476;DHT22;19814;48.224;11.422;2023-02-26T11:23:05;3.10;99.90
33476;DHT22;19814;48.224;11.422;2023-02-26T11:25:31;4.40;98.40
33476;DHT22;19814;48.224;11.422;2023-02-26T11:28:00;4.80;97.20
33476;DHT22;19814;48.224;11.422;2023-02-26T11:30:26;4.60;97.30
33476;DHT22;19814;48.224;11.422;2023-02-26T11:32:56;4.20;97.50
33476;DHT22;19814;48.224;11.422;2023-02-26T11:35:22;3.90;97.50
33476;DHT22;19814;48.224;11.422;2023-02-26T11:37:49;3.50;98.00
33476;DHT22;19814;48.224;11.422;2023-02-26T11:40:18;3.40;99.20
33476;DHT22;19814;48.224;11.422;2023-02-26T11:42:57;3.40;97.80
33476;DHT22;19814;48.224;11.422;2023-02-26T11:45:23;3.30;98.30
33476;DHT22;19814;48.224;11.422;2023-02-26T11:47:57;3.40;97.60
33476;DHT22;19814;48.224;11.422;2023-02-26T11:50:23;3.70;97.80
33476;DHT22;19814;48.224;11.422;2023-02-26T11:52:54;3.40;98.40
33476;DHT22;19814;48.224;11.422;2023-02-26T11:55:21;3.20;99.20
33476;DHT22;19814;48.224;11.422;2023-02-26T11:57:52;3.20;99.20
33476;DHT22;19814;48.224;11.422;2023-02-26T12:00:38;3.50;99.60
33476;DHT22;19814;48.224;11.422;2023-02-26T12:03:06;3.70;98.20
33476;DHT22;19814;48.224;11.422;2023-02-26T12:05:33;3.80;98.50
33476;DHT22;19814;48.224;11.422;2023-02-26T12:08:00;4.00;98.10
33476;DHT22;19814;48.224;11.422;2023-02-26T12:10:30;4.10;96.50
33476;DHT22;19814;48.224;11.422;2023-02-26T12:13:01;4.00;97.00
33476;DHT22;19814;48.224;11.422;2023-02-26T12:18:34;7.30;92.60
33476;DHT22;19814;48.224;11.422;2023-02-26T12:21:05;7.10;91.70
33476;DHT22;19814;48.224;11.422;2023-02-26T12:34:04;4.20;94.20
33476;DHT22;19814;48.224;11.422;2023-02-26T12:39:24;3.30;94.60
33476;DHT22;19814;48.224;11.422;2023-02-26T12:49:49;3.50;94.60
33476;DHT22;19814;48.224;11.422;2023-02-26T12:54:55;3.30;94.90
33476;DHT22;19814;48.224;11.422;2023-02-26T13:10:11;2.80;94.80
33476;DHT22;19814;48.224;11.422;2023-02-26T13:12:47;2.60;95.40
33476;DHT22;19814;48.224;11.422;2023-02-26T13:18:01;1.70;97.80
33476;DHT22;19814;48.224;11.422;2023-02-26T13:20:28;1.70;99.30
33476;DHT22;19814;48.224;11.422;2023-02-26T13:23:01;1.90;98.80
33476;DHT22;19814;48.224;11.422;2023-02-26T13:25:47;1.80;98.30
33476;DHT22;19814;48.224;11.422;2023-02-26T13:28:29;1.90;98.40
33476;DHT22;19814;48.224;11.422;2023-02-26T13:30:58;2.00;98.10
33476;DHT22;19814;48.224;11.422;2023-02-26T13:33:26;2.10;98.00
33476;DHT22;19814;48.224;11.422;2023-02-26T13:35:53;2.30;98.90
33476;DHT22;19814;48.224;11.422;2023-02-26T13:51:26;3.70;93.10
33476;DHT22;19814;48.224;11.422;2023-02-26T13:53:59;3.30;94.10
33476;DHT22;19814;48.224;11.422;2023-02-26T13:59:04;2.80;95.00
33476;DHT22;19814;48.224;11.422;2023-02-26T14:01:49;2.80;95.10
33476;DHT22;19814;48.224;11.422;2023-02-26T14:17:17;3.50;94.00
33476;DHT22;19814;48.224;11.422;2023-02-26T14:19:41;3.50;92.70
33476;DHT22;19814;48.224;11.422;2023-02-26T14:22:17;3.40;92.50
33476;DHT22;19814;48.224;11.422;2023-02-26T14:24:53;3.40;93.40
33476;DHT22;19814;48.224;11.422;2023-02-26T14:32:29;3.30;94.00
33476;DHT22;19814;48.224;11.422;2023-02-26T14:34:57;3.40;93.50
33476;DHT22;19814;48.224;11.422;2023-02-26T14:37:25;3.30;93.00
33476;DHT22;19814;48.224;11.422;2023-02-26T14:39:56;3.40;93.80
33476;DHT22;19814;48.224;11.422;2023-02-26T14:42:33;3.50;92.60
33476;DHT22;19814;48.224;11.422;2023-02-26T14:47:40;3.80;93.60
33476;DHT22;19814;48.224;11.422;2023-02-26T14:50:06;3.90;92.80
33476;DHT22;19814;48.224;11.422;2023-02-26T15:00:21;3.00;90.40
33476;DHT22;19814;48.224;11.422;2023-02-26T15:03:02;2.80;91.30
33476;DHT22;19814;48.224;11.422;2023-02-26T15:08:23;2.70;91.90
33476;DHT22;19814;48.224;11.422;2023-02-26T15:11:01;2.70;91.60
33476;DHT22;19814;48.224;11.422;2023-02-26T15:21:21;2.80;94.60
33476;DHT22;19814;48.224;11.422;2023-02-26T15:23:50;2.90;95.00
33476;DHT22;19814;48.224;11.422;2023-02-26T15:26:18;3.00;94.40
33476;DHT22;19814;48.224;11.422;2023-02-26T15:28:44;2.90;94.50
33476;DHT22;19814;48.224;11.422;2023-02-26T15:31:10;2.70;93.50
33476;DHT22;19814;48.224;11.422;2023-02-26T15:33:36;2.70;94.10
33476;DHT22;19814;48.224;11.422;2023-02-26T15:36:06;2.70;93.90
33476;DHT22;19814;48.224;11.422;2023-02-26T15:38:39;2.40;92.80
33476;DHT22;19814;48.224;11.422;2023-02-26T15:41:05;2.40;93.90
33476;DHT22;19814;48.224;11.422;2023-02-26T15:43:30;2.40;93.50
33476;DHT22;19814;48.224;11.422;2023-02-26T15:45:56;2.50;93.90
33476;DHT22;19814;48.224;11.422;2023-02-26T15:48:27;2.40;92.20
33476;DHT22;19814;48.224;11.422;2023-02-26T15:50:55;2.10;92.60
33476;DHT22;19814;48.224;11.422;2023-02-26T15:53:41;2.00;93.30
33476;DHT22;19814;48.224;11.422;2023-02-26T15:56:09;1.80;92.90
33476;DHT22;19814;48.224;11.422;2023-02-26T16:01:02;1.70;94.20
33476;DHT22;19814;48.224;11.422;2023-02-26T16:03:32;1.60;94.10
33476;DHT22;19814;48.224;11.422;2023-02-26T16:05:59;1.60;94.20
33476;DHT22;19814;48.224;11.422;2023-02-26T16:08:24;1.50;94.30
33476;DHT22;19814;48.224;11.422;2023-02-26T16:10:50;1.50;94.60
33476;DHT22;19814;48.224;11.422;2023-02-26T16:13:19;1.60;95.00
33476;DHT22;19814;48.224;11.422;2023-02-26T16:15:49;1.60;95.20
33476;DHT22;19814;48.224;11.422;2023-02-26T16:18:15;1.60;95.50
33476;DHT22;19814;48.224;11.422;2023-02-26T16:20:43;1.60;95.20
33476;DHT22;19814;48.224;11.422;2023-02-26T16:23:16;1.50;95.30
33476;DHT22;19814;48.224;11.422;2023-02-26T16:25:49;1.60;95.90
33476;DHT22;19814;48.224;11.422;2023-02-26T16:28:20;1.60;95.50
33476;DHT22;19814;48.224;11.422;2023-02-26T16:30:47;1.60;95.60
33476;DHT22;19814;48.224;11.422;2023-02-26T16:33:14;1.50;95.70
33476;DHT22;19814;48.224;11.422;2023-02-26T16:35:47;1.50;95.60
33476;DHT22;19814;48.224;11.422;2023-02-26T16:38:18;1.40;96.30
33476;DHT22;19814;48.224;11.422;2023-02-26T16:40:44;1.40;96.00
33476;DHT22;19814;48.224;11.422;2023-02-26T16:45:49;1.40;96.10
33476;DHT22;19814;48.224;11.422;2023-02-26T16:48:23;1.50;96.90
33476;DHT22;19814;48.224;11.422;2023-02-26T16:51:00;1.50;97.80
33476;DHT22;19814;48.224;11.422;2023-02-26T16:53:34;1.30;99.90
33476;DHT22;19814;48.224;11.422;2023-02-26T16:55:59;1.00;99.90
33476;DHT22;19814;48.224;11.422;2023-02-26T16:58:25;0.90;99.90
33476;DHT22;19814;48.224;11.422;2023-02-26T17:00:52;0.80;99.90
33476;DHT22;19814;48.224;11.422;2023-02-26T17:03:22;0.60;99.90
33476;DHT22;19814;48.224;11.422;2023-02-26T17:08:14;0.40;99.90
33476;DHT22;19814;48.224;11.422;2023-02-26T17:10:45;0.30;99.90
33476;DHT22;19814;48.224;11.422;2023-02-26T17:13:12;0.40;99.90
33476;DHT22;19814;48.224;11.422;2023-02-26T17:15:38;0.40;99.90
33476;DHT22;19814;48.224;11.422;2023-02-26T17:18:05;0.50;99.90
33476;DHT22;19814;48.224;11.422;2023-02-26T17:20:31;0.50;99.90
33476;DHT22;19814;48.224;11.422;2023-02-26T17:22:57;0.50;99.90
33476;DHT22;19814;48.224;11.422;2023-02-26T17:25:23;0.60;99.90
33476;DHT22;19814;48.224;11.422;2023-02-26T17:27:50;0.70;99.90
33476;DHT22;19814;48.224;11.422;2023-02-26T17:30:18;0.70;99.90
33476;DHT22;19814;48.224;11.422;2023-02-26T17:32:44;0.80;99.90
33476;DHT22;19814;48.224;11.422;2023-02-26T17:35:13;0.90;99.70
33476;DHT22;19814;48.224;11.422;2023-02-26T17:37:40;0.90;99.60
33476;DHT22;19814;48.224;11.422;2023-02-26T17:40:13;0.80;99.30
33476;DHT22;19814;48.224;11.422;2023-02-26T17:42:40;0.90;99.80
33476;DHT22;19814;48.224;11.422;2023-02-26T17:45:06;0.90;99.60
33476;DHT22;19814;48.224;11.422;2023-02-26T17:47:31;1.00;99.70
33476;DHT22;19814;48.224;11.422;2023-02-26T17:49:57;0.90;99.10
33476;DHT22;19814;48.224;11.422;2023-02-26T17:52:24;0.90;99.50
33476;DHT22;19814;48.224;11.422;2023-02-26T17:54:50;1.00;99.00
33476;DHT22;19814;48.224;11.422;2023-02-26T17:57:17;0.90;98.70
33476;DHT22;19814;48.224;11.422;2023-02-26T17:59:43;0.80;99.20
33476;DHT22;19814;48.224;11.422;2023-02-26T18:02:22;0.80;99.30
33476;DHT22;19814;48.224;11.422;2023-02-26T18:04:49;0.90;99.30
33476;DHT22;19814;48.224;11.422;2023-02-26T18:07:15;0.90;99.30
33476;DHT22;19814;48.224;11.422;2023-02-26T18:09:41;0.90;99.30
33476;DHT22;19814;48.224;11.422;2023-02-26T18:12:09;1.00;99.40
33476;DHT22;19814;48.224;11.422;2023-02-26T18:14:35;1.00;99.40
33476;DHT22;19814;48.224;11.422;2023-02-26T18:17:01;1.00;99.40
33476;DHT22;19814;48.224;11.422;2023-02-26T18:19:26;1.00;99.30
33476;DHT22;19814;48.224;11.422;2023-02-26T18:21:52;1.00;99.40
33476;DHT22;19814;48.224;11.422;2023-02-26T18:24:17;1.00;99.20